Youngstown, OH

05:21 AM EST die 27o January, anno 2015 (GMT -0500)
West Side | Change Station
CLOSE
Current Station
Personal Weather Stations
Location: Youngstown, OH
Elevation: 1010 ft
Nearby Weather Stations

Elev 1010 ft 41.09 °N, 80.70 °W | Updated 4 seconds ago

Nix
Nix
19.2 °F
Feels Like 19 °F
N
0.0
Ventus Variabilis Ventus from Magis Aquilo quam Eurus
Gusts 0.0 mph

Hodie
High -- | Low -- °F
--% Chance of Precip.
Yesterday
High -- | Low -- °F
Precip. -- in
7:38 AM 5:33 PM
First Quarter, 52% visible
Pressio 29.93 in
Visibilitas 4.0 milia passuum
Clouds Nubes Dispersae 1000 ft
Aequaliter Nubila 1500 ft
Frigus Venti 19 °F
Frigus in quo Ros apparet 10 °F
Umor 67%
Rainfall 0.00 in
Snow Depth Not available.
UV 0 out of 12
Pollen .10 out of 12
Air Quality Not available.
Flu Activity Not available.
METAR KYNG 270951Z 33010KT 4SM -SN BR SCT010 OVC015 M08/M10 A2987 RMK AO2 SLP133 P0000 T10781100

More Conditions Fewer Conditions

Pressio 29.93 in
Visibilitas 4.0 milia passuum
Clouds Nubes Dispersae 1000 ft
Aequaliter Nubila 1500 ft
Frigus Venti 19 °F
Frigus in quo Ros apparet 10 °F
Umor 67%
Rainfall 0.00 in
Snow Depth Not available.
UV 0 out of 12
Pollen .10 out of 12
Air Quality Not available.
Flu Activity Not available.
METAR KYNG 270951Z 33010KT 4SM -SN BR SCT010 OVC015 M08/M10 A2987 RMK AO2 SLP133 P0000 T10781100

More Conditions Fewer Conditions

10-Day Weather Forecast

Almanac

Astronomy

Jan. 27, 2015 Rise Set
Actual Time
Civil Twilight
Nautical Twilight
Astronomical Twilight
Moon
Length Of Visible Light
Length of Day
Tomorrow will be .
, % of the Moon is Illuminated

Today's Extremes

State Highs State Lows

Community

WunderPhotos

Upload Photos

1,790,562 photos uploaded!

WunderBlogs® & News

Nearby

Air Quality

  Air Quality AQ Index Pollutant
Not available.

Snow Depth

Station Depth Elevation

Earthquake Activity

City Distance Mag. Time & Date
Minimum magnitude displayed is 2.5.

Coastal Water Temperatures

Locus Calor

Nearby Weather Stations